createdAt,value
2023-04-25T00:00:03.106Z,14.50
2023-04-25T00:05:21.019Z,15.80
2023-04-25T00:10:29.195Z,12.20
2023-04-25T00:15:37.486Z,12.70
2023-04-25T00:20:47.924Z,12.10
2023-04-25T00:25:55.538Z,13.30
2023-04-25T00:31:02.963Z,14.10
2023-04-25T00:36:11.805Z,13.70
2023-04-25T00:41:19.286Z,11.60
2023-04-25T00:46:26.709Z,13.20
2023-04-25T00:51:36.157Z,13.70
2023-04-25T00:56:44.177Z,12.70
2023-04-25T01:01:52.398Z,13.20
2023-04-25T01:07:00.817Z,13.30
2023-04-25T01:12:09.364Z,11.40
2023-04-25T01:17:17.639Z,11.00
2023-04-25T01:22:25.360Z,10.70
2023-04-25T01:27:33.373Z,13.50
2023-04-25T01:32:42.495Z,13.80
2023-04-25T01:37:50.639Z,11.30
2023-04-25T01:42:58.628Z,13.10
2023-04-25T01:48:06.404Z,14.50
2023-04-25T01:53:15.916Z,15.10
2023-04-25T01:58:25.303Z,15.00
2023-04-25T02:03:52.323Z,15.10
2023-04-25T02:09:14.720Z,10.50
2023-04-25T02:14:27.222Z,14.20
2023-04-25T02:19:46.205Z,13.90
2023-04-25T02:24:54.045Z,14.90
2023-04-25T02:30:01.906Z,16.20
2023-04-25T02:35:10.881Z,12.80
2023-04-25T02:40:18.392Z,13.90
2023-04-25T02:45:26.367Z,16.50
2023-04-25T02:50:33.989Z,14.70
2023-04-25T02:55:41.606Z,15.10
2023-04-25T03:00:49.869Z,15.50
2023-04-25T03:05:57.701Z,15.20
2023-04-25T03:11:08.723Z,14.70
2023-04-25T03:16:17.193Z,15.50
2023-04-25T03:21:24.877Z,14.20
2023-04-25T03:26:32.538Z,16.00
2023-04-25T03:31:40.734Z,18.90
2023-04-25T03:36:48.623Z,19.50
2023-04-25T03:41:56.492Z,27.50
2023-04-25T03:47:04.130Z,17.70
2023-04-25T03:52:12.342Z,17.60
2023-04-25T03:57:21.380Z,15.70
2023-04-25T04:02:29.642Z,13.80
2023-04-25T04:07:41.638Z,18.30
2023-04-25T04:12:51.129Z,16.20
2023-04-25T04:17:58.786Z,17.00
2023-04-25T04:23:06.791Z,18.30
2023-04-25T04:28:14.709Z,17.60
2023-04-25T04:33:42.287Z,18.00
2023-04-25T04:38:49.872Z,17.80
2023-04-25T04:44:11.584Z,17.40
2023-04-25T04:49:38.082Z,15.30
2023-04-25T04:55:24.147Z,15.30
2023-04-25T05:01:07.450Z,14.30
2023-04-25T05:06:34.964Z,15.20
2023-04-25T05:11:57.189Z,17.10
2023-04-25T05:17:30.710Z,16.50
2023-04-25T05:22:50.996Z,15.20
2023-04-25T05:28:18.715Z,17.10
2023-04-25T05:33:49.698Z,16.20
2023-04-25T05:38:58.657Z,17.20
2023-04-25T05:44:29.385Z,13.70
2023-04-25T05:49:55.028Z,14.90
2023-04-25T05:55:23.653Z,14.50
2023-04-25T06:00:32.076Z,10.90
2023-04-25T06:05:39.977Z,12.00
2023-04-25T06:10:47.872Z,12.20
2023-04-25T06:15:55.738Z,11.60
2023-04-25T06:21:04.122Z,9.50
2023-04-25T06:26:13.010Z,9.80
2023-04-25T06:31:21.972Z,9.30
2023-04-25T06:36:30.398Z,9.70
2023-04-25T06:41:43.163Z,8.20
2023-04-25T06:47:04.929Z,13.40
2023-04-25T06:52:13.573Z,11.80
2023-04-25T06:57:21.143Z,13.00
2023-04-25T07:02:29.883Z,12.90
2023-04-25T07:07:38.581Z,10.70
2023-04-25T07:12:46.159Z,11.60
2023-04-25T07:17:54.306Z,15.70
2023-04-25T07:23:02.668Z,10.60
2023-04-25T07:28:10.836Z,10.80
2023-04-25T07:33:18.892Z,10.30
2023-04-25T07:38:27.038Z,13.00
2023-04-25T07:43:35.941Z,14.50
2023-04-25T07:48:44.586Z,12.30
2023-04-25T07:53:53.011Z,9.60
2023-04-25T07:59:02.004Z,9.40
2023-04-25T08:04:10.289Z,10.40
2023-04-25T08:09:40.850Z,9.40
2023-04-25T08:14:52.928Z,9.40
2023-04-25T08:20:01.744Z,9.50
2023-04-25T08:25:13.052Z,7.30
2023-04-25T08:30:22.888Z,8.70
2023-04-25T08:35:32.288Z,8.60
2023-04-25T08:40:42.911Z,7.80
2023-04-25T08:46:01.967Z,9.60
2023-04-25T08:51:27.506Z,8.30
2023-04-25T08:56:37.624Z,9.00
2023-04-25T09:01:49.318Z,10.70
2023-04-25T09:06:58.559Z,8.40
2023-04-25T09:12:08.059Z,8.20
2023-04-25T09:17:16.906Z,9.00
2023-04-25T09:22:31.694Z,9.50
2023-04-25T09:27:52.626Z,6.30
2023-04-25T09:33:09.389Z,10.10
2023-04-25T09:38:21.535Z,5.60
2023-04-25T09:43:40.166Z,5.70
2023-04-25T09:48:55.272Z,6.00
2023-04-25T09:54:17.451Z,4.00
2023-04-25T09:59:31.493Z,5.80
2023-04-25T10:04:41.066Z,4.90
2023-04-25T10:10:03.415Z,4.50
2023-04-25T10:15:13.763Z,6.60
2023-04-25T10:20:22.157Z,6.60
2023-04-25T10:25:30.850Z,79.10
2023-04-25T10:30:39.060Z,20.00
2023-04-25T10:35:47.866Z,6.10
2023-04-25T10:41:09.736Z,2.70
2023-04-25T10:46:27.436Z,2.90
2023-04-25T10:51:54.384Z,3.40
2023-04-25T10:57:04.251Z,3.20
2023-04-25T11:02:17.275Z,2.40
2023-04-25T11:07:37.361Z,2.00
2023-04-25T11:12:45.855Z,2.90
2023-04-25T11:17:55.760Z,4.90
2023-04-25T11:28:24.310Z,2.40
2023-04-25T11:33:33.086Z,1.80
2023-04-25T11:38:43.231Z,3.40
2023-04-25T11:43:53.775Z,2.80
2023-04-25T11:49:02.217Z,2.10
2023-04-25T11:54:10.465Z,5.30
2023-04-25T11:59:19.485Z,4.90
2023-04-25T12:04:29.065Z,8.10
2023-04-25T12:09:37.271Z,7.00
2023-04-25T12:14:51.549Z,10.50
2023-04-25T12:20:00.203Z,18.40
2023-04-25T12:25:09.510Z,20.20
2023-04-25T12:30:18.050Z,20.20
2023-04-25T12:35:26.855Z,19.00
2023-04-25T12:40:35.210Z,5.50
2023-04-25T12:45:43.913Z,6.50
2023-04-25T12:50:53.471Z,7.90
2023-04-25T12:56:02.467Z,6.40
2023-04-25T13:01:10.877Z,6.00
2023-04-25T13:06:18.951Z,3.80
2023-04-25T13:11:27.390Z,19.50
2023-04-25T13:16:36.300Z,17.30
2023-04-25T13:21:44.687Z,14.50
2023-04-25T13:26:53.118Z,9.10
2023-04-25T13:32:01.942Z,9.00
2023-04-25T13:37:10.268Z,6.60
2023-04-25T13:42:19.781Z,9.40
2023-04-25T13:47:28.334Z,9.60
2023-04-25T13:52:37.225Z,14.20
2023-04-25T13:57:45.072Z,7.50
2023-04-25T14:02:52.615Z,5.00
2023-04-25T14:08:02.363Z,5.20
2023-04-25T14:13:10.886Z,12.40
2023-04-25T14:18:18.449Z,8.50
2023-04-25T14:23:26.441Z,12.70
2023-04-25T14:28:33.792Z,22.00
2023-04-25T14:33:44.092Z,14.80
2023-04-25T14:38:52.953Z,16.70
2023-04-25T14:44:01.605Z,24.20
2023-04-25T14:49:11.098Z,26.40
2023-04-25T14:54:19.575Z,21.40
2023-04-25T14:59:28.552Z,16.30
2023-04-25T15:04:36.784Z,11.30
2023-04-25T15:09:45.365Z,13.40
2023-04-25T15:14:54.423Z,13.40
2023-04-25T15:20:02.924Z,10.70
2023-04-25T15:25:12.752Z,11.80
2023-04-25T15:30:21.822Z,7.60
2023-04-25T15:35:31.168Z,9.90
2023-04-25T15:40:39.617Z,7.80
2023-04-25T15:45:47.240Z,9.50
2023-04-25T15:50:55.555Z,37.20
2023-04-25T15:56:05.183Z,34.20
2023-04-25T16:01:12.850Z,20.90
2023-04-25T16:06:20.421Z,28.90
2023-04-25T16:11:30.331Z,29.00
2023-04-25T16:16:38.787Z,97.00
2023-04-25T16:21:47.619Z,173.70
2023-04-25T16:26:56.819Z,318.20
2023-04-25T16:32:06.225Z,198.30
2023-04-25T16:37:14.644Z,254.40
2023-04-25T16:42:22.972Z,246.20
2023-04-25T16:47:31.776Z,188.50
2023-04-25T16:52:42.395Z,183.40
2023-04-25T16:57:52.838Z,150.20
2023-04-25T17:03:01.384Z,148.20
2023-04-25T17:08:10.429Z,87.30
2023-04-25T17:13:18.803Z,49.50
2023-04-25T17:18:27.230Z,75.40
2023-04-25T17:23:34.893Z,70.00
2023-04-25T17:28:45.567Z,71.00
2023-04-25T17:33:54.422Z,64.80
2023-04-25T17:39:02.699Z,54.20
2023-04-25T17:44:11.235Z,61.50
2023-04-25T17:49:20.335Z,46.80
2023-04-25T17:54:28.672Z,121.00
2023-04-25T17:59:37.011Z,176.60
2023-04-25T18:04:44.351Z,113.60
2023-04-25T18:09:52.041Z,91.70
2023-04-25T18:14:59.710Z,137.80
2023-04-25T18:20:12.204Z,73.10
2023-04-25T18:25:20.661Z,94.40
2023-04-25T18:30:29.603Z,63.00
2023-04-25T18:35:45.050Z,29.30
2023-04-25T18:41:10.733Z,23.80
2023-04-25T18:46:29.102Z,27.60
2023-04-25T18:51:38.151Z,21.20
2023-04-25T18:56:47.393Z,27.40
2023-04-25T19:01:55.985Z,12.40
2023-04-25T19:07:05.160Z,11.00
2023-04-25T19:12:13.606Z,15.80
2023-04-25T19:17:22.758Z,11.90
2023-04-25T19:22:33.013Z,9.70
2023-04-25T19:27:42.290Z,7.30
2023-04-25T19:32:50.808Z,9.80
2023-04-25T19:37:58.631Z,15.70
2023-04-25T19:43:07.105Z,16.10
2023-04-25T19:48:15.827Z,23.30
2023-04-25T19:53:25.243Z,26.00
2023-04-25T19:58:34.690Z,25.80
2023-04-25T20:03:43.667Z,32.40
2023-04-25T20:08:55.075Z,32.10
2023-04-25T20:14:03.452Z,25.50
2023-04-25T20:19:10.529Z,23.60
2023-04-25T20:24:19.207Z,21.60
2023-04-25T20:29:27.398Z,29.60
2023-04-25T20:34:35.864Z,24.20
2023-04-25T20:39:44.503Z,17.40
2023-04-25T20:44:52.106Z,17.40
2023-04-25T20:50:00.308Z,14.10
2023-04-25T20:55:11.190Z,17.80
2023-04-25T21:00:29.257Z,12.60
2023-04-25T21:05:37.752Z,12.90
2023-04-25T21:10:45.277Z,10.10
2023-04-25T21:15:52.975Z,13.90
2023-04-25T21:21:00.493Z,18.80
2023-04-25T21:26:08.920Z,14.40
2023-04-25T21:31:17.663Z,8.20
2023-04-25T21:36:26.154Z,11.90
2023-04-25T21:41:34.438Z,9.50
2023-04-25T21:46:43.279Z,11.50
2023-04-25T21:51:51.509Z,10.50
2023-04-25T21:57:00.528Z,9.20
2023-04-25T22:02:08.996Z,8.20
2023-04-25T22:07:17.651Z,11.80
2023-04-25T22:12:26.337Z,7.50
2023-04-25T22:17:34.426Z,11.10
2023-04-25T22:22:43.236Z,13.70
2023-04-25T22:27:51.857Z,8.70
2023-04-25T22:33:00.233Z,11.00
2023-04-25T22:38:08.820Z,13.10
2023-04-25T22:43:16.322Z,11.30
2023-04-25T22:48:25.040Z,10.40
2023-04-25T22:53:34.584Z,12.40
2023-04-25T22:58:44.319Z,12.60
2023-04-25T23:03:55.820Z,13.50
2023-04-25T23:09:03.357Z,9.10
2023-04-25T23:14:10.922Z,11.50
2023-04-25T23:19:18.438Z,13.00
2023-04-25T23:24:27.251Z,10.00
2023-04-25T23:29:35.297Z,9.90
2023-04-25T23:34:43.527Z,11.50
2023-04-25T23:39:54.593Z,11.80
2023-04-25T23:45:03.180Z,11.10
2023-04-25T23:50:15.097Z,9.50
2023-04-25T23:55:22.746Z,10.90
